sensor_id;sensor_type;location;lat;lon;timestamp;pressure;altitude;pressure_sealevel;temperature;humidity
5691;BME280;2870;42.680;23.364;2022-10-16T00:01:52;95789.03;;;10.30;90.70
5691;BME280;2870;42.680;23.364;2022-10-16T00:04:19;95793.53;;;10.20;91.54
5691;BME280;2870;42.680;23.364;2022-10-16T00:06:46;95790.53;;;10.18;91.20
5691;BME280;2870;42.680;23.364;2022-10-16T00:09:13;95801.09;;;10.12;91.53
5691;BME280;2870;42.680;23.364;2022-10-16T00:11:40;95795.19;;;10.02;91.77
5691;BME280;2870;42.680;23.364;2022-10-16T00:14:10;95790.00;;;10.06;92.13
5691;BME280;2870;42.680;23.364;2022-10-16T00:16:38;95797.78;;;10.00;92.48
5691;BME280;2870;42.680;23.364;2022-10-16T00:19:04;95800.66;;;10.08;92.74
5691;BME280;2870;42.680;23.364;2022-10-16T00:21:33;95801.84;;;10.13;92.01
5691;BME280;2870;42.680;23.364;2022-10-16T00:24:01;95788.38;;;9.98;92.03
5691;BME280;2870;42.680;23.364;2022-10-16T00:26:29;95803.81;;;10.04;92.78
5691;BME280;2870;42.680;23.364;2022-10-16T00:28:57;95809.75;;;10.01;92.57
5691;BME280;2870;42.680;23.364;2022-10-16T00:31:26;95806.19;;;10.00;92.52
5691;BME280;2870;42.680;23.364;2022-10-16T00:33:53;95816.31;;;10.17;92.16
5691;BME280;2870;42.680;23.364;2022-10-16T00:36:21;95818.13;;;10.14;92.11
5691;BME280;2870;42.680;23.364;2022-10-16T00:38:50;95818.47;;;10.11;92.17
5691;BME280;2870;42.680;23.364;2022-10-16T00:41:18;95824.31;;;9.99;92.65
5691;BME280;2870;42.680;23.364;2022-10-16T00:43:47;95814.81;;;9.89;92.96
5691;BME280;2870;42.680;23.364;2022-10-16T00:46:17;95816.97;;;9.83;92.73
5691;BME280;2870;42.680;23.364;2022-10-16T00:48:50;95816.84;;;9.89;93.64
5691;BME280;2870;42.680;23.364;2022-10-16T00:51:23;95812.22;;;9.91;92.69
5691;BME280;2870;42.680;23.364;2022-10-16T00:53:51;95807.69;;;9.88;92.81
5691;BME280;2870;42.680;23.364;2022-10-16T00:56:18;95812.31;;;9.72;93.08
5691;BME280;2870;42.680;23.364;2022-10-16T00:58:45;95820.53;;;9.70;93.41
5691;BME280;2870;42.680;23.364;2022-10-16T01:01:12;95810.91;;;9.66;93.77
5691;BME280;2870;42.680;23.364;2022-10-16T01:03:39;95819.84;;;9.64;93.83
5691;BME280;2870;42.680;23.364;2022-10-16T01:06:22;95826.97;;;9.65;93.79
5691;BME280;2870;42.680;23.364;2022-10-16T01:09:01;95828.34;;;9.59;94.03
5691;BME280;2870;42.680;23.364;2022-10-16T01:11:35;95828.88;;;9.57;94.90
5691;BME280;2870;42.680;23.364;2022-10-16T01:14:10;95826.75;;;9.63;93.89
5691;BME280;2870;42.680;23.364;2022-10-16T01:16:44;95826.97;;;9.65;93.70
5691;BME280;2870;42.680;23.364;2022-10-16T01:19:19;95815.44;;;9.55;94.03
5691;BME280;2870;42.680;23.364;2022-10-16T01:21:51;95815.06;;;9.46;94.44
5691;BME280;2870;42.680;23.364;2022-10-16T01:24:27;95815.63;;;9.44;94.91
5691;BME280;2870;42.680;23.364;2022-10-16T01:27:13;95801.63;;;9.44;94.94
5691;BME280;2870;42.680;23.364;2022-10-16T01:29:48;95805.53;;;9.54;93.79
5691;BME280;2870;42.680;23.364;2022-10-16T01:32:20;95810.69;;;9.50;94.00
5691;BME280;2870;42.680;23.364;2022-10-16T01:34:51;95800.31;;;9.45;94.54
5691;BME280;2870;42.680;23.364;2022-10-16T01:37:26;95805.06;;;9.37;94.34
5691;BME280;2870;42.680;23.364;2022-10-16T01:39:58;95808.25;;;9.28;94.47
5691;BME280;2870;42.680;23.364;2022-10-16T01:42:33;95802.97;;;9.24;94.69
5691;BME280;2870;42.680;23.364;2022-10-16T01:45:02;95811.72;;;9.34;94.37
5691;BME280;2870;42.680;23.364;2022-10-16T01:47:32;95819.28;;;9.39;94.51
5691;BME280;2870;42.680;23.364;2022-10-16T01:50:02;95826.81;;;9.44;93.87
5691;BME280;2870;42.680;23.364;2022-10-16T01:52:32;95821.81;;;9.24;94.76
5691;BME280;2870;42.680;23.364;2022-10-16T01:55:02;95823.09;;;9.23;95.56
5691;BME280;2870;42.680;23.364;2022-10-16T01:57:32;95834.75;;;9.27;94.95
5691;BME280;2870;42.680;23.364;2022-10-16T02:00:08;95822.66;;;9.19;95.29
5691;BME280;2870;42.680;23.364;2022-10-16T02:02:36;95836.88;;;9.21;94.89
5691;BME280;2870;42.680;23.364;2022-10-16T02:05:09;95819.47;;;9.28;94.79
5691;BME280;2870;42.680;23.364;2022-10-16T02:07:38;95843.16;;;9.27;94.95
5691;BME280;2870;42.680;23.364;2022-10-16T02:10:07;95841.56;;;9.32;95.28
5691;BME280;2870;42.680;23.364;2022-10-16T02:12:38;95839.19;;;9.36;94.46
5691;BME280;2870;42.680;23.364;2022-10-16T02:15:07;95842.84;;;9.31;94.29
5691;BME280;2870;42.680;23.364;2022-10-16T02:17:34;95843.09;;;9.46;93.75
5691;BME280;2870;42.680;23.364;2022-10-16T02:20:03;95848.09;;;9.66;92.25
5691;BME280;2870;42.680;23.364;2022-10-16T02:22:34;95852.69;;;9.64;91.74
5691;BME280;2870;42.680;23.364;2022-10-16T02:25:06;95851.66;;;9.80;89.93
5691;BME280;2870;42.680;23.364;2022-10-16T02:27:40;95845.19;;;9.72;90.48
5691;BME280;2870;42.680;23.364;2022-10-16T02:30:13;95855.09;;;9.60;91.38
5691;BME280;2870;42.680;23.364;2022-10-16T02:32:42;95848.41;;;9.63;90.93
5691;BME280;2870;42.680;23.364;2022-10-16T02:35:12;95850.34;;;9.68;89.19
5691;BME280;2870;42.680;23.364;2022-10-16T02:37:40;95832.97;;;9.56;89.60
5691;BME280;2870;42.680;23.364;2022-10-16T02:40:08;95849.03;;;9.55;90.63
5691;BME280;2870;42.680;23.364;2022-10-16T02:42:39;95855.28;;;9.48;89.69
5691;BME280;2870;42.680;23.364;2022-10-16T02:45:08;95861.41;;;9.15;90.62
5691;BME280;2870;42.680;23.364;2022-10-16T02:47:36;95856.31;;;8.81;91.73
5691;BME280;2870;42.680;23.364;2022-10-16T02:50:04;95857.22;;;8.89;92.02
5691;BME280;2870;42.680;23.364;2022-10-16T02:52:30;95867.72;;;9.02;92.21
5691;BME280;2870;42.680;23.364;2022-10-16T02:54:57;95869.31;;;9.29;90.67
5691;BME280;2870;42.680;23.364;2022-10-16T02:57:24;95871.69;;;9.07;90.95
5691;BME280;2870;42.680;23.364;2022-10-16T02:59:53;95873.47;;;8.91;91.71
5691;BME280;2870;42.680;23.364;2022-10-16T03:02:19;95875.06;;;8.86;92.17
5691;BME280;2870;42.680;23.364;2022-10-16T03:04:47;95875.06;;;8.67;93.10
5691;BME280;2870;42.680;23.364;2022-10-16T03:07:13;95876.13;;;8.64;92.79
5691;BME280;2870;42.680;23.364;2022-10-16T03:09:41;95873.41;;;8.59;93.37
5691;BME280;2870;42.680;23.364;2022-10-16T03:12:07;95876.28;;;8.53;93.65
5691;BME280;2870;42.680;23.364;2022-10-16T03:14:34;95874.59;;;8.44;93.88
5691;BME280;2870;42.680;23.364;2022-10-16T03:17:02;95882.91;;;8.50;94.15
5691;BME280;2870;42.680;23.364;2022-10-16T03:19:29;95867.91;;;8.29;94.41
5691;BME280;2870;42.680;23.364;2022-10-16T03:21:56;95882.16;;;8.49;94.46
5691;BME280;2870;42.680;23.364;2022-10-16T03:24:23;95884.44;;;8.51;94.33
5691;BME280;2870;42.680;23.364;2022-10-16T03:26:50;95890.72;;;8.57;93.87
5691;BME280;2870;42.680;23.364;2022-10-16T03:29:17;95890.50;;;8.74;93.60
5691;BME280;2870;42.680;23.364;2022-10-16T03:31:44;95887.91;;;8.95;93.07
5691;BME280;2870;42.680;23.364;2022-10-16T03:34:12;95890.56;;;8.87;92.18
5691;BME280;2870;42.680;23.364;2022-10-16T03:36:39;95884.84;;;8.80;92.33
5691;BME280;2870;42.680;23.364;2022-10-16T03:39:06;95883.84;;;8.77;91.18
5691;BME280;2870;42.680;23.364;2022-10-16T03:41:32;95885.94;;;8.90;92.07
5691;BME280;2870;42.680;23.364;2022-10-16T03:43:59;95885.84;;;8.95;91.51
5691;BME280;2870;42.680;23.364;2022-10-16T03:46:26;95881.34;;;8.92;91.17
5691;BME280;2870;42.680;23.364;2022-10-16T03:48:53;95879.38;;;8.87;91.35
5691;BME280;2870;42.680;23.364;2022-10-16T03:51:21;95882.03;;;8.80;91.25
5691;BME280;2870;42.680;23.364;2022-10-16T03:53:48;95880.06;;;8.74;92.15
5691;BME280;2870;42.680;23.364;2022-10-16T03:56:15;95877.19;;;8.80;92.31
5691;BME280;2870;42.680;23.364;2022-10-16T03:58:42;95875.97;;;8.75;91.36
5691;BME280;2870;42.680;23.364;2022-10-16T04:01:09;95878.78;;;8.75;91.88
5691;BME280;2870;42.680;23.364;2022-10-16T04:03:35;95873.19;;;8.75;91.97
5691;BME280;2870;42.680;23.364;2022-10-16T04:06:02;95874.78;;;8.71;91.90
5691;BME280;2870;42.680;23.364;2022-10-16T04:08:31;95876.88;;;8.65;91.58
5691;BME280;2870;42.680;23.364;2022-10-16T04:11:00;95878.84;;;8.70;91.58
5691;BME280;2870;42.680;23.364;2022-10-16T04:13:26;95876.28;;;8.72;91.18
5691;BME280;2870;42.680;23.364;2022-10-16T04:15:53;95883.97;;;8.85;90.64
5691;BME280;2870;42.680;23.364;2022-10-16T04:18:20;95886.31;;;8.62;91.85
5691;BME280;2870;42.680;23.364;2022-10-16T04:20:47;95882.16;;;8.49;92.15
5691;BME280;2870;42.680;23.364;2022-10-16T04:23:13;95882.91;;;8.50;92.87
5691;BME280;2870;42.680;23.364;2022-10-16T04:25:42;95886.53;;;8.45;93.78
5691;BME280;2870;42.680;23.364;2022-10-16T04:28:08;95886.47;;;8.50;93.77
5691;BME280;2870;42.680;23.364;2022-10-16T04:30:37;95873.91;;;8.38;93.59
5691;BME280;2870;42.680;23.364;2022-10-16T04:33:04;95893.06;;;8.53;93.89
5691;BME280;2870;42.680;23.364;2022-10-16T04:35:31;95893.59;;;8.52;93.50
5691;BME280;2870;42.680;23.364;2022-10-16T04:37:58;95902.16;;;8.35;93.78
5691;BME280;2870;42.680;23.364;2022-10-16T04:40:25;95899.16;;;8.27;94.20
5691;BME280;2870;42.680;23.364;2022-10-16T04:42:53;95900.25;;;8.24;94.22
5691;BME280;2870;42.680;23.364;2022-10-16T04:45:20;95907.94;;;8.18;94.91
5691;BME280;2870;42.680;23.364;2022-10-16T04:47:47;95910.47;;;8.16;94.77
5691;BME280;2870;42.680;23.364;2022-10-16T04:50:14;95907.00;;;8.10;94.85
5691;BME280;2870;42.680;23.364;2022-10-16T04:52:40;95913.06;;;8.14;95.06
5691;BME280;2870;42.680;23.364;2022-10-16T04:55:08;95912.84;;;8.12;94.85
5691;BME280;2870;42.680;23.364;2022-10-16T04:57:34;95923.53;;;8.08;94.94
5691;BME280;2870;42.680;23.364;2022-10-16T05:00:03;95925.25;;;8.11;95.05
5691;BME280;2870;42.680;23.364;2022-10-16T05:02:30;95921.66;;;8.16;95.33
5691;BME280;2870;42.680;23.364;2022-10-16T05:04:57;95926.50;;;8.15;94.96
5691;BME280;2870;42.680;23.364;2022-10-16T05:07:24;95930.38;;;8.31;95.09
5691;BME280;2870;42.680;23.364;2022-10-16T05:09:50;95934.22;;;8.28;95.38
5691;BME280;2870;42.680;23.364;2022-10-16T05:12:17;95933.19;;;8.31;95.51
5691;BME280;2870;42.680;23.364;2022-10-16T05:14:44;95933.88;;;8.62;93.51
5691;BME280;2870;42.680;23.364;2022-10-16T05:17:12;95934.06;;;8.45;93.71
5691;BME280;2870;42.680;23.364;2022-10-16T05:19:39;95936.19;;;8.33;93.41
5691;BME280;2870;42.680;23.364;2022-10-16T05:22:06;95941.09;;;8.27;94.54
5691;BME280;2870;42.680;23.364;2022-10-16T05:24:33;95950.56;;;8.24;94.13
5691;BME280;2870;42.680;23.364;2022-10-16T05:26:59;95944.84;;;8.35;94.74
5691;BME280;2870;42.680;23.364;2022-10-16T05:29:26;95948.66;;;8.32;93.61
5691;BME280;2870;42.680;23.364;2022-10-16T05:31:53;95945.88;;;8.32;93.91
5691;BME280;2870;42.680;23.364;2022-10-16T05:34:21;95942.03;;;8.35;94.17
5691;BME280;2870;42.680;23.364;2022-10-16T05:36:48;95945.09;;;8.37;93.45
5691;BME280;2870;42.680;23.364;2022-10-16T05:39:15;95946.38;;;8.36;93.04
5691;BME280;2870;42.680;23.364;2022-10-16T05:41:42;95950.44;;;8.35;93.13
5691;BME280;2870;42.680;23.364;2022-10-16T05:44:10;95959.84;;;8.32;93.29
5691;BME280;2870;42.680;23.364;2022-10-16T05:46:37;95953.41;;;8.43;93.10
5691;BME280;2870;42.680;23.364;2022-10-16T05:49:04;95959.06;;;8.37;92.91
5691;BME280;2870;42.680;23.364;2022-10-16T05:51:32;95961.00;;;8.67;91.98
5691;BME280;2870;42.680;23.364;2022-10-16T05:53:59;95966.44;;;8.59;91.99
5691;BME280;2870;42.680;23.364;2022-10-16T05:56:26;95957.63;;;8.74;91.69
5691;BME280;2870;42.680;23.364;2022-10-16T05:58:52;95967.94;;;9.03;91.10
5691;BME280;2870;42.680;23.364;2022-10-16T06:01:19;95972.47;;;9.07;90.81
5691;BME280;2870;42.680;23.364;2022-10-16T06:03:49;95974.28;;;9.23;89.76
5691;BME280;2870;42.680;23.364;2022-10-16T06:06:18;95969.44;;;9.42;89.62
5691;BME280;2870;42.680;23.364;2022-10-16T06:08:48;95980.63;;;9.42;88.59
5691;BME280;2870;42.680;23.364;2022-10-16T06:11:18;95988.47;;;9.63;88.19
5691;BME280;2870;42.680;23.364;2022-10-16T06:13:49;95988.25;;;9.61;87.93
5691;BME280;2870;42.680;23.364;2022-10-16T06:16:16;95994.78;;;9.82;86.26
5691;BME280;2870;42.680;23.364;2022-10-16T06:18:42;95998.06;;;9.99;84.90
5691;BME280;2870;42.680;23.364;2022-10-16T06:21:11;95991.66;;;10.18;83.35
5691;BME280;2870;42.680;23.364;2022-10-16T06:23:38;95997.44;;;10.06;84.26
5691;BME280;2870;42.680;23.364;2022-10-16T06:26:07;95992.97;;;10.30;84.67
5691;BME280;2870;42.680;23.364;2022-10-16T06:28:34;95998.69;;;10.38;82.86
5691;BME280;2870;42.680;23.364;2022-10-16T06:31:02;95999.25;;;10.49;82.65
5691;BME280;2870;42.680;23.364;2022-10-16T06:33:29;96002.81;;;10.37;83.32
5691;BME280;2870;42.680;23.364;2022-10-16T06:36:00;96008.25;;;10.16;82.87
5691;BME280;2870;42.680;23.364;2022-10-16T06:38:27;96001.41;;;10.43;82.26
5691;BME280;2870;42.680;23.364;2022-10-16T06:40:54;96009.00;;;10.61;81.19
5691;BME280;2870;42.680;23.364;2022-10-16T06:43:23;96004.31;;;10.77;80.54
5691;BME280;2870;42.680;23.364;2022-10-16T06:45:52;96014.38;;;11.12;80.60
5691;BME280;2870;42.680;23.364;2022-10-16T06:48:20;96005.22;;;11.33;79.13
5691;BME280;2870;42.680;23.364;2022-10-16T06:50:55;96023.53;;;11.60;76.18
5691;BME280;2870;42.680;23.364;2022-10-16T06:53:23;96025.72;;;11.88;75.38
5691;BME280;2870;42.680;23.364;2022-10-16T06:55:49;96035.94;;;12.41;73.64
5691;BME280;2870;42.680;23.364;2022-10-16T06:58:16;96026.53;;;12.88;71.75
5691;BME280;2870;42.680;23.364;2022-10-16T07:00:44;96030.34;;;12.98;71.68
5691;BME280;2870;42.680;23.364;2022-10-16T07:03:12;96040.50;;;13.73;68.74
5691;BME280;2870;42.680;23.364;2022-10-16T07:05:40;96045.25;;;13.50;66.79
5691;BME280;2870;42.680;23.364;2022-10-16T07:08:07;96052.94;;;14.01;65.37
5691;BME280;2870;42.680;23.364;2022-10-16T07:10:34;96033.28;;;14.47;64.09
5691;BME280;2870;42.680;23.364;2022-10-16T07:13:01;96044.28;;;15.29;59.65
5691;BME280;2870;42.680;23.364;2022-10-16T07:15:28;96048.81;;;15.24;62.85
5691;BME280;2870;42.680;23.364;2022-10-16T07:17:56;96048.25;;;15.81;60.33
5691;BME280;2870;42.680;23.364;2022-10-16T07:20:23;96049.50;;;16.28;57.38
5691;BME280;2870;42.680;23.364;2022-10-16T07:22:50;96044.28;;;15.77;58.45
5691;BME280;2870;42.680;23.364;2022-10-16T07:25:16;96039.34;;;16.75;56.08
5691;BME280;2870;42.680;23.364;2022-10-16T07:27:43;96049.38;;;17.11;55.98
5691;BME280;2870;42.680;23.364;2022-10-16T07:30:10;96048.53;;;17.01;54.23
5691;BME280;2870;42.680;23.364;2022-10-16T07:32:37;96056.03;;;16.88;56.39
5691;BME280;2870;42.680;23.364;2022-10-16T07:35:06;96050.91;;;17.29;53.95
5691;BME280;2870;42.680;23.364;2022-10-16T07:37:33;96046.47;;;17.18;54.54
5691;BME280;2870;42.680;23.364;2022-10-16T07:40:00;96047.25;;;17.19;54.41
5691;BME280;2870;42.680;23.364;2022-10-16T07:42:27;96055.28;;;14.94;60.49
5691;BME280;2870;42.680;23.364;2022-10-16T07:44:54;96061.16;;;14.58;64.70
5691;BME280;2870;42.680;23.364;2022-10-16T07:47:21;96053.97;;;14.88;62.78
5691;BME280;2870;42.680;23.364;2022-10-16T07:49:48;96056.75;;;14.19;65.09
5691;BME280;2870;42.680;23.364;2022-10-16T07:52:16;96052.22;;;14.08;66.28
5691;BME280;2870;42.680;23.364;2022-10-16T07:54:42;96053.59;;;14.30;66.52
5691;BME280;2870;42.680;23.364;2022-10-16T07:57:10;96055.22;;;14.10;65.98
5691;BME280;2870;42.680;23.364;2022-10-16T07:59:36;96063.75;;;13.66;67.10
5691;BME280;2870;42.680;23.364;2022-10-16T08:02:03;96055.44;;;13.53;67.96
5691;BME280;2870;42.680;23.364;2022-10-16T08:04:30;96066.81;;;13.84;67.80
5691;BME280;2870;42.680;23.364;2022-10-16T08:06:57;96057.59;;;13.32;69.05
5691;BME280;2870;42.680;23.364;2022-10-16T08:09:25;96057.09;;;12.84;72.64
5691;BME280;2870;42.680;23.364;2022-10-16T08:11:52;96029.03;;;13.28;70.67
5691;BME280;2870;42.680;23.364;2022-10-16T08:14:18;96059.66;;;13.83;68.45
5691;BME280;2870;42.680;23.364;2022-10-16T08:16:45;96059.56;;;13.52;70.44
5691;BME280;2870;42.680;23.364;2022-10-16T08:19:12;96055.69;;;14.52;68.01
5691;BME280;2870;42.680;23.364;2022-10-16T08:21:41;96039.59;;;15.79;61.04
5691;BME280;2870;42.680;23.364;2022-10-16T08:24:08;96057.00;;;16.58;57.84
5691;BME280;2870;42.680;23.364;2022-10-16T08:26:36;96051.94;;;16.57;56.92
5691;BME280;2870;42.680;23.364;2022-10-16T08:29:03;96051.41;;;17.35;54.74
5691;BME280;2870;42.680;23.364;2022-10-16T08:31:30;96056.66;;;17.56;53.81
5691;BME280;2870;42.680;23.364;2022-10-16T08:33:57;96045.91;;;18.53;50.49
5691;BME280;2870;42.680;23.364;2022-10-16T08:36:23;96045.91;;;18.53;51.11
5691;BME280;2870;42.680;23.364;2022-10-16T08:38:51;96059.50;;;18.82;49.86
5691;BME280;2870;42.680;23.364;2022-10-16T08:41:45;96053.41;;;18.95;48.71
5691;BME280;2870;42.680;23.364;2022-10-16T08:47:19;96054.81;;;19.32;47.37
5691;BME280;2870;42.680;23.364;2022-10-16T08:49:57;96050.38;;;19.58;45.30
5691;BME280;2870;42.680;23.364;2022-10-16T08:52:29;96051.97;;;19.91;44.78
5691;BME280;2870;42.680;23.364;2022-10-16T08:54:56;96063.91;;;20.28;43.84
5691;BME280;2870;42.680;23.364;2022-10-16T08:57:25;96058.16;;;20.47;43.14
5691;BME280;2870;42.680;23.364;2022-10-16T08:59:53;96069.91;;;20.22;44.59
5691;BME280;2870;42.680;23.364;2022-10-16T09:02:30;96063.19;;;21.30;41.68
5691;BME280;2870;42.680;23.364;2022-10-16T09:05:20;96038.56;;;21.25;41.58
5691;BME280;2870;42.680;23.364;2022-10-16T09:07:58;96068.06;;;21.82;39.64
5691;BME280;2870;42.680;23.364;2022-10-16T09:10:36;96055.88;;;21.82;38.74
5691;BME280;2870;42.680;23.364;2022-10-16T09:13:14;96065.00;;;22.23;38.54
5691;BME280;2870;42.680;23.364;2022-10-16T09:15:49;96062.38;;;21.94;39.45
5691;BME280;2870;42.680;23.364;2022-10-16T09:18:25;96050.84;;;20.25;41.47
5691;BME280;2870;42.680;23.364;2022-10-16T09:21:00;96046.19;;;20.80;40.96
5691;BME280;2870;42.680;23.364;2022-10-16T09:23:34;96050.16;;;20.96;40.57
5691;BME280;2870;42.680;23.364;2022-10-16T09:26:02;96060.28;;;21.61;39.33
5691;BME280;2870;42.680;23.364;2022-10-16T09:28:31;96055.81;;;20.75;41.97
5691;BME280;2870;42.680;23.364;2022-10-16T09:30:57;96058.88;;;21.84;38.50
5691;BME280;2870;42.680;23.364;2022-10-16T09:33:27;96048.50;;;21.24;39.72
5691;BME280;2870;42.680;23.364;2022-10-16T09:35:57;96036.19;;;21.64;38.74
5691;BME280;2870;42.680;23.364;2022-10-16T09:38:26;96053.31;;;22.87;37.56
5691;BME280;2870;42.680;23.364;2022-10-16T09:40:55;96050.28;;;20.98;38.86
5691;BME280;2870;42.680;23.364;2022-10-16T09:43:25;96042.31;;;21.28;39.92
5691;BME280;2870;42.680;23.364;2022-10-16T09:45:57;96037.81;;;22.45;37.73
5691;BME280;2870;42.680;23.364;2022-10-16T09:48:27;96046.94;;;23.00;36.87
5691;BME280;2870;42.680;23.364;2022-10-16T09:50:56;96040.44;;;22.53;37.02
5691;BME280;2870;42.680;23.364;2022-10-16T09:53:23;96032.44;;;21.95;38.29
5691;BME280;2870;42.680;23.364;2022-10-16T09:55:50;96033.06;;;22.27;37.11
5691;BME280;2870;42.680;23.364;2022-10-16T09:58:17;96036.78;;;22.29;36.65
5691;BME280;2870;42.680;23.364;2022-10-16T10:00:49;96034.91;;;22.10;37.74
5691;BME280;2870;42.680;23.364;2022-10-16T10:03:33;96028.03;;;22.60;36.94
5691;BME280;2870;42.680;23.364;2022-10-16T10:06:06;96028.50;;;22.57;37.07
5691;BME280;2870;42.680;23.364;2022-10-16T10:08:34;96027.53;;;22.52;36.44
5691;BME280;2870;42.680;23.364;2022-10-16T10:11:01;96031.44;;;22.23;39.13
5691;BME280;2870;42.680;23.364;2022-10-16T10:13:28;96024.16;;;23.02;32.94
5691;BME280;2870;42.680;23.364;2022-10-16T10:15:54;96027.66;;;23.01;33.73
5691;BME280;2870;42.680;23.364;2022-10-16T10:18:22;96028.75;;;22.61;35.52
5691;BME280;2870;42.680;23.364;2022-10-16T10:20:59;96021.19;;;22.77;36.29
5691;BME280;2870;42.680;23.364;2022-10-16T10:23:28;96018.34;;;22.89;36.70
5691;BME280;2870;42.680;23.364;2022-10-16T10:26:00;96020.13;;;23.43;35.80
5691;BME280;2870;42.680;23.364;2022-10-16T10:28:42;96013.16;;;21.84;38.06
5691;BME280;2870;42.680;23.364;2022-10-16T10:31:18;96006.00;;;21.94;37.34
5691;BME280;2870;42.680;23.364;2022-10-16T10:33:54;96009.25;;;21.56;37.38
5691;BME280;2870;42.680;23.364;2022-10-16T10:36:32;96004.66;;;21.62;39.17
5691;BME280;2870;42.680;23.364;2022-10-16T10:39:03;96003.59;;;22.12;35.67
5691;BME280;2870;42.680;23.364;2022-10-16T10:42:05;95994.69;;;22.30;35.80
5691;BME280;2870;42.680;23.364;2022-10-16T10:45:01;95997.66;;;22.32;35.38
5691;BME280;2870;42.680;23.364;2022-10-16T10:47:39;95990.72;;;21.90;35.44
5691;BME280;2870;42.680;23.364;2022-10-16T10:50:14;95993.88;;;20.97;36.49
5691;BME280;2870;42.680;23.364;2022-10-16T10:52:55;95989.31;;;21.03;37.67
5691;BME280;2870;42.680;23.364;2022-10-16T10:55:31;95979.25;;;20.09;39.66
5691;BME280;2870;42.680;23.364;2022-10-16T10:58:27;95983.63;;;20.00;40.47
5691;BME280;2870;42.680;23.364;2022-10-16T11:01:02;95977.25;;;19.71;40.34
5691;BME280;2870;42.680;23.364;2022-10-16T11:03:42;95979.41;;;20.01;41.47
5691;BME280;2870;42.680;23.364;2022-10-16T11:06:17;95972.09;;;20.70;39.09
5691;BME280;2870;42.680;23.364;2022-10-16T11:08:49;95973.25;;;20.55;39.15
5691;BME280;2870;42.680;23.364;2022-10-16T11:11:27;95969.69;;;20.04;39.12
5691;BME280;2870;42.680;23.364;2022-10-16T11:13:59;95966.63;;;20.53;39.06
5691;BME280;2870;42.680;23.364;2022-10-16T11:16:31;95968.91;;;20.45;39.72
5691;BME280;2870;42.680;23.364;2022-10-16T11:19:03;95961.13;;;20.76;38.38
5691;BME280;2870;42.680;23.364;2022-10-16T11:21:39;95966.06;;;20.54;38.03
5691;BME280;2870;42.680;23.364;2022-10-16T11:24:16;95952.56;;;20.55;38.40
5691;BME280;2870;42.680;23.364;2022-10-16T11:26:46;95964.91;;;20.38;37.69
5691;BME280;2870;42.680;23.364;2022-10-16T11:29:19;95958.63;;;19.89;38.80
5691;BME280;2870;42.680;23.364;2022-10-16T11:31:51;95953.72;;;19.51;39.73
5691;BME280;2870;42.680;23.364;2022-10-16T11:34:22;95949.16;;;19.96;39.53
5691;BME280;2870;42.680;23.364;2022-10-16T11:36:55;95951.66;;;20.11;39.57
5691;BME280;2870;42.680;23.364;2022-10-16T11:39:25;95949.63;;;20.33;40.61
5691;BME280;2870;42.680;23.364;2022-10-16T11:41:55;95954.94;;;20.80;38.58
5691;BME280;2870;42.680;23.364;2022-10-16T11:44:38;95962.22;;;20.92;38.53
5691;BME280;2870;42.680;23.364;2022-10-16T11:47:22;95964.25;;;20.80;37.80
5691;BME280;2870;42.680;23.364;2022-10-16T11:49:53;95952.09;;;20.80;38.02
5691;BME280;2870;42.680;23.364;2022-10-16T11:52:26;95959.34;;;20.40;37.96
5691;BME280;2870;42.680;23.364;2022-10-16T11:54:59;95959.56;;;20.23;38.23
5691;BME280;2870;42.680;23.364;2022-10-16T11:57:31;95959.59;;;20.13;38.43
5691;BME280;2870;42.680;23.364;2022-10-16T12:00:02;95956.47;;;20.40;39.31
5691;BME280;2870;42.680;23.364;2022-10-16T12:02:40;95953.13;;;20.22;38.52
5691;BME280;2870;42.680;23.364;2022-10-16T12:05:19;95954.44;;;20.31;38.53
5691;BME280;2870;42.680;23.364;2022-10-16T12:07:54;95959.13;;;20.17;38.18
5691;BME280;2870;42.680;23.364;2022-10-16T12:10:27;95950.25;;;19.91;38.66
5691;BME280;2870;42.680;23.364;2022-10-16T12:12:54;95955.94;;;19.81;38.73
5691;BME280;2870;42.680;23.364;2022-10-16T12:15:24;95954.56;;;19.92;38.29
5691;BME280;2870;42.680;23.364;2022-10-16T12:17:51;95956.28;;;19.47;39.50
5691;BME280;2870;42.680;23.364;2022-10-16T12:20:26;95958.38;;;19.17;39.59
5691;BME280;2870;42.680;23.364;2022-10-16T12:22:57;95955.53;;;19.27;40.28
5691;BME280;2870;42.680;23.364;2022-10-16T12:25:27;95959.88;;;19.47;40.43
5691;BME280;2870;42.680;23.364;2022-10-16T12:28:00;95959.25;;;19.68;39.57
5691;BME280;2870;42.680;23.364;2022-10-16T12:30:31;95961.78;;;19.74;39.79
5691;BME280;2870;42.680;23.364;2022-10-16T12:33:01;95952.81;;;19.68;40.22
5691;BME280;2870;42.680;23.364;2022-10-16T12:35:30;95958.78;;;19.91;39.74
5691;BME280;2870;42.680;23.364;2022-10-16T12:38:15;95962.06;;;19.97;39.56
5691;BME280;2870;42.680;23.364;2022-10-16T12:40:46;95955.13;;;20.00;39.10
5691;BME280;2870;42.680;23.364;2022-10-16T12:43:26;95943.06;;;19.80;39.84
5691;BME280;2870;42.680;23.364;2022-10-16T12:46:02;95954.59;;;19.73;39.96
5691;BME280;2870;42.680;23.364;2022-10-16T12:48:29;95954.31;;;19.49;39.80
5691;BME280;2870;42.680;23.364;2022-10-16T12:50:57;95959.41;;;19.80;39.52
5691;BME280;2870;42.680;23.364;2022-10-16T12:53:25;95961.09;;;19.64;39.58
5691;BME280;2870;42.680;23.364;2022-10-16T12:56:03;95953.72;;;19.70;39.96
5691;BME280;2870;42.680;23.364;2022-10-16T12:58:58;95956.69;;;19.82;40.04
5691;BME280;2870;42.680;23.364;2022-10-16T13:01:36;95951.94;;;19.36;41.17
5691;BME280;2870;42.680;23.364;2022-10-16T13:04:27;95960.16;;;19.80;39.84
5691;BME280;2870;42.680;23.364;2022-10-16T13:07:09;95961.75;;;19.93;39.14
5691;BME280;2870;42.680;23.364;2022-10-16T13:09:52;95967.94;;;19.80;38.27
5691;BME280;2870;42.680;23.364;2022-10-16T13:12:38;95970.00;;;19.99;38.64
5691;BME280;2870;42.680;23.364;2022-10-16T13:15:27;95968.38;;;19.86;40.11
5691;BME280;2870;42.680;23.364;2022-10-16T13:18:04;95968.56;;;19.49;39.83
5691;BME280;2870;42.680;23.364;2022-10-16T13:20:46;95959.97;;;19.88;39.11
5691;BME280;2870;42.680;23.364;2022-10-16T13:23:23;95958.81;;;19.72;38.22
5691;BME280;2870;42.680;23.364;2022-10-16T13:26:03;95960.13;;;19.90;38.28
5691;BME280;2870;42.680;23.364;2022-10-16T13:28:34;95961.47;;;19.89;38.77
5691;BME280;2870;42.680;23.364;2022-10-16T13:31:04;95966.53;;;20.00;38.91
5691;BME280;2870;42.680;23.364;2022-10-16T13:33:33;95961.06;;;19.44;38.89
5691;BME280;2870;42.680;23.364;2022-10-16T13:36:02;95963.31;;;19.75;39.01